sensor_id;sensor_type;location;lat;lon;timestamp;noise_LAeq;noise_LA_min;noise_LA_max;noise_LA01;noise_LA95
60116;Laerm;62818;49.394;8.686;2023-06-05T00:00:29;57.83;43.99;66.52;;
60116;Laerm;62818;49.394;8.686;2023-06-05T00:01:29;57.67;43.44;66.56;;
60116;Laerm;62818;49.394;8.686;2023-06-05T00:02:34;56.86;42.53;67.24;;
60116;Laerm;62818;49.394;8.686;2023-06-05T00:03:34;57.24;43.58;66.45;;
60116;Laerm;62818;49.394;8.686;2023-06-05T00:04:37;58.12;42.71;68.17;;
60116;Laerm;62818;49.394;8.686;2023-06-05T00:05:39;56.96;43.19;66.08;;
60116;Laerm;62818;49.394;8.686;2023-06-05T00:06:40;58.77;42.88;67.43;;
60116;Laerm;62818;49.394;8.686;2023-06-05T00:07:41;60.98;43.44;69.11;;
60116;Laerm;62818;49.394;8.686;2023-06-05T00:08:41;62.86;42.42;71.43;;
60116;Laerm;62818;49.394;8.686;2023-06-05T00:09:42;57.67;42.98;66.63;;
60116;Laerm;62818;49.394;8.686;2023-06-05T00:10:42;59.73;43.04;68.43;;
60116;Laerm;62818;49.394;8.686;2023-06-05T00:11:43;61.95;44.31;70.47;;
60116;Laerm;62818;49.394;8.686;2023-06-05T00:12:43;62.79;42.29;70.76;;
60116;Laerm;62818;49.394;8.686;2023-06-05T00:13:44;58.76;43.34;68.23;;
60116;Laerm;62818;49.394;8.686;2023-06-05T00:14:46;63.23;42.98;71.17;;
60116;Laerm;62818;49.394;8.686;2023-06-05T00:15:46;60.22;41.96;68.84;;
60116;Laerm;62818;49.394;8.686;2023-06-05T00:16:47;63.09;43.24;72.27;;
60116;Laerm;62818;49.394;8.686;2023-06-05T00:17:50;56.38;43.77;65.01;;
60116;Laerm;62818;49.394;8.686;2023-06-05T00:18:50;56.28;42.65;65.14;;
60116;Laerm;62818;49.394;8.686;2023-06-05T00:19:51;56.44;44.15;65.44;;
60116;Laerm;62818;49.394;8.686;2023-06-05T00:20:52;58.85;43.63;73.26;;
60116;Laerm;62818;49.394;8.686;2023-06-05T00:21:52;58.42;44.03;66.41;;
60116;Laerm;62818;49.394;8.686;2023-06-05T00:22:53;58.15;43.24;69.22;;
60116;Laerm;62818;49.394;8.686;2023-06-05T00:23:55;62.83;44.54;74.38;;
60116;Laerm;62818;49.394;8.686;2023-06-05T00:24:56;63.02;47.14;72.80;;
60116;Laerm;62818;49.394;8.686;2023-06-05T00:25:57;58.43;43.58;67.16;;
60116;Laerm;62818;49.394;8.686;2023-06-05T00:26:58;58.65;44.27;72.87;;
60116;Laerm;62818;49.394;8.686;2023-06-05T00:27:58;58.06;44.11;66.86;;
60116;Laerm;62818;49.394;8.686;2023-06-05T00:28:59;59.91;44.76;73.90;;
60116;Laerm;62818;49.394;8.686;2023-06-05T00:29:59;61.19;44.15;69.61;;
60116;Laerm;62818;49.394;8.686;2023-06-05T00:31:01;62.39;43.81;70.49;;
60116;Laerm;62818;49.394;8.686;2023-06-05T00:32:02;57.42;43.77;64.77;;
60116;Laerm;62818;49.394;8.686;2023-06-05T00:33:02;59.18;44.03;67.70;;
60116;Laerm;62818;49.394;8.686;2023-06-05T00:34:03;58.72;43.54;68.83;;
60116;Laerm;62818;49.394;8.686;2023-06-05T00:35:04;61.39;44.27;69.76;;
60116;Laerm;62818;49.394;8.686;2023-06-05T00:37:06;61.88;43.34;71.42;;
60116;Laerm;62818;49.394;8.686;2023-06-05T00:38:06;59.44;44.62;70.51;;
60116;Laerm;62818;49.394;8.686;2023-06-05T00:39:07;60.64;42.47;69.74;;
60116;Laerm;62818;49.394;8.686;2023-06-05T00:40:09;50.04;43.81;66.00;;
60116;Laerm;62818;49.394;8.686;2023-06-05T00:41:09;66.49;42.98;73.60;;
60116;Laerm;62818;49.394;8.686;2023-06-05T00:42:10;65.34;44.94;72.62;;
60116;Laerm;62818;49.394;8.686;2023-06-05T00:43:10;63.89;42.71;71.80;;
60116;Laerm;62818;49.394;8.686;2023-06-05T00:44:11;60.50;43.99;74.67;;
60116;Laerm;62818;49.394;8.686;2023-06-05T00:45:11;62.27;43.24;70.74;;
60116;Laerm;62818;49.394;8.686;2023-06-05T00:46:13;56.95;42.82;67.71;;
60116;Laerm;62818;49.394;8.686;2023-06-05T00:47:15;58.84;41.30;72.78;;
60116;Laerm;62818;49.394;8.686;2023-06-05T00:48:15;58.87;42.93;66.65;;
60116;Laerm;62818;49.394;8.686;2023-06-05T00:49:17;57.79;43.14;67.08;;
60116;Laerm;62818;49.394;8.686;2023-06-05T00:50:19;59.23;41.61;66.66;;
60116;Laerm;62818;49.394;8.686;2023-06-05T00:51:21;57.55;41.30;65.72;;
60116;Laerm;62818;49.394;8.686;2023-06-05T00:52:22;59.09;41.46;66.85;;
60116;Laerm;62818;49.394;8.686;2023-06-05T00:53:25;61.31;42.71;69.36;;
60116;Laerm;62818;49.394;8.686;2023-06-05T00:54:26;64.77;42.71;71.68;;
60116;Laerm;62818;49.394;8.686;2023-06-05T00:55:28;57.33;41.75;68.19;;
60116;Laerm;62818;49.394;8.686;2023-06-05T00:56:28;56.81;43.14;66.55;;
60116;Laerm;62818;49.394;8.686;2023-06-05T00:57:29;56.96;42.71;65.77;;
60116;Laerm;62818;49.394;8.686;2023-06-05T00:58:31;62.74;42.76;71.06;;
60116;Laerm;62818;49.394;8.686;2023-06-05T00:59:32;64.29;44.54;71.64;;
60116;Laerm;62818;49.394;8.686;2023-06-05T01:00:35;63.47;41.53;71.26;;
60116;Laerm;62818;49.394;8.686;2023-06-05T01:01:36;46.94;41.75;65.47;;
60116;Laerm;62818;49.394;8.686;2023-06-05T01:02:37;65.89;41.46;72.85;;
60116;Laerm;62818;49.394;8.686;2023-06-05T01:03:37;64.48;43.94;72.35;;
60116;Laerm;62818;49.394;8.686;2023-06-05T01:04:40;59.22;42.03;68.61;;
60116;Laerm;62818;49.394;8.686;2023-06-05T01:05:47;61.30;41.38;69.76;;
60116;Laerm;62818;49.394;8.686;2023-06-05T01:06:50;56.90;40.80;66.03;;
60116;Laerm;62818;49.394;8.686;2023-06-05T01:07:52;58.65;40.80;66.68;;
60116;Laerm;62818;49.394;8.686;2023-06-05T01:08:53;43.91;39.92;61.00;;
60116;Laerm;62818;49.394;8.686;2023-06-05T01:09:56;64.98;40.43;72.80;;
60116;Laerm;62818;49.394;8.686;2023-06-05T01:11:01;59.08;39.58;68.60;;
60116;Laerm;62818;49.394;8.686;2023-06-05T01:12:19;57.88;40.33;68.67;;
60116;Laerm;62818;49.394;8.686;2023-06-05T01:13:26;62.03;38.05;70.91;;
60116;Laerm;62818;49.394;8.686;2023-06-05T01:14:33;58.21;40.13;67.12;;
60116;Laerm;62818;49.394;8.686;2023-06-05T01:15:37;62.97;39.58;71.08;;
60116;Laerm;62818;49.394;8.686;2023-06-05T01:16:39;63.63;38.05;71.43;;
60116;Laerm;62818;49.394;8.686;2023-06-05T01:17:40;56.34;39.58;65.00;;
60116;Laerm;62818;49.394;8.686;2023-06-05T01:18:41;55.87;41.14;64.96;;
60116;Laerm;62818;49.394;8.686;2023-06-05T01:19:46;55.10;39.21;64.93;;
60116;Laerm;62818;49.394;8.686;2023-06-05T01:20:50;55.16;37.88;65.06;;
60116;Laerm;62818;49.394;8.686;2023-06-05T01:21:51;55.12;37.88;64.43;;
60116;Laerm;62818;49.394;8.686;2023-06-05T01:22:52;56.07;37.88;64.62;;
60116;Laerm;62818;49.394;8.686;2023-06-05T01:23:52;55.07;37.88;65.32;;
60116;Laerm;62818;49.394;8.686;2023-06-05T01:24:53;56.39;38.52;67.06;;
60116;Laerm;62818;49.394;8.686;2023-06-05T01:26:00;54.56;36.91;64.81;;
60116;Laerm;62818;49.394;8.686;2023-06-05T01:27:25;54.67;37.88;64.97;;
60116;Laerm;62818;49.394;8.686;2023-06-05T01:28:31;54.54;38.37;65.01;;
60116;Laerm;62818;49.394;8.686;2023-06-05T01:29:41;54.97;37.32;64.97;;
60116;Laerm;62818;49.394;8.686;2023-06-05T01:31:08;54.08;37.32;65.58;;
60116;Laerm;62818;49.394;8.686;2023-06-05T01:32:27;53.92;36.45;65.03;;
60116;Laerm;62818;49.394;8.686;2023-06-05T01:33:35;54.77;36.20;64.62;;
60116;Laerm;62818;49.394;8.686;2023-06-05T01:34:44;55.41;38.52;65.19;;
60116;Laerm;62818;49.394;8.686;2023-06-05T01:35:50;56.98;38.21;65.80;;
60116;Laerm;62818;49.394;8.686;2023-06-05T01:36:54;57.07;40.53;65.41;;
60116;Laerm;62818;49.394;8.686;2023-06-05T01:37:59;57.05;39.58;66.48;;
60116;Laerm;62818;49.394;8.686;2023-06-05T01:39:01;61.25;41.06;68.84;;
60116;Laerm;62818;49.394;8.686;2023-06-05T01:40:04;63.88;40.62;71.85;;
60116;Laerm;62818;49.394;8.686;2023-06-05T01:41:10;65.02;41.14;72.39;;
60116;Laerm;62818;49.394;8.686;2023-06-05T01:42:12;64.33;41.46;71.55;;
60116;Laerm;62818;49.394;8.686;2023-06-05T01:43:14;65.22;39.08;72.09;;
60116;Laerm;62818;49.394;8.686;2023-06-05T01:44:16;58.27;37.12;67.08;;
60116;Laerm;62818;49.394;8.686;2023-06-05T01:45:18;62.87;37.70;70.66;;
60116;Laerm;62818;49.394;8.686;2023-06-05T01:46:21;56.36;38.05;65.94;;
60116;Laerm;62818;49.394;8.686;2023-06-05T01:47:24;57.24;35.94;66.82;;
60116;Laerm;62818;49.394;8.686;2023-06-05T01:48:25;45.16;37.70;58.98;;
60116;Laerm;62818;49.394;8.686;2023-06-05T01:49:30;65.69;38.95;73.25;;
60116;Laerm;62818;49.394;8.686;2023-06-05T01:50:35;60.23;38.05;68.82;;
60116;Laerm;62818;49.394;8.686;2023-06-05T01:51:36;65.40;38.52;72.51;;
60116;Laerm;62818;49.394;8.686;2023-06-05T01:52:37;62.27;37.12;70.90;;
60116;Laerm;62818;49.394;8.686;2023-06-05T01:53:40;58.48;37.12;67.38;;
60116;Laerm;62818;49.394;8.686;2023-06-05T01:54:40;61.31;37.70;69.91;;
60116;Laerm;62818;49.394;8.686;2023-06-05T01:55:42;65.27;39.08;72.29;;
60116;Laerm;62818;49.394;8.686;2023-06-05T01:56:44;46.14;37.88;61.15;;
60116;Laerm;62818;49.394;8.686;2023-06-05T01:57:44;66.23;40.62;73.15;;
60116;Laerm;62818;49.394;8.686;2023-06-05T01:58:47;59.26;41.06;68.24;;
60116;Laerm;62818;49.394;8.686;2023-06-05T01:59:48;57.21;43.09;66.31;;
60116;Laerm;62818;49.394;8.686;2023-06-05T02:00:50;61.26;40.80;69.43;;
60116;Laerm;62818;49.394;8.686;2023-06-05T02:01:50;63.01;38.37;73.88;;
60116;Laerm;62818;49.394;8.686;2023-06-05T02:02:51;63.87;37.32;71.77;;
60116;Laerm;62818;49.394;8.686;2023-06-05T02:03:51;63.63;37.12;71.48;;
60116;Laerm;62818;49.394;8.686;2023-06-05T02:04:53;65.86;38.05;73.55;;
60116;Laerm;62818;49.394;8.686;2023-06-05T02:05:54;61.87;37.70;70.47;;
60116;Laerm;62818;49.394;8.686;2023-06-05T02:06:54;57.62;38.37;66.57;;
60116;Laerm;62818;49.394;8.686;2023-06-05T02:07:55;56.63;37.70;66.78;;
60116;Laerm;62818;49.394;8.686;2023-06-05T02:08:58;60.41;36.69;68.63;;
60116;Laerm;62818;49.394;8.686;2023-06-05T02:09:59;55.93;36.91;65.81;;
60116;Laerm;62818;49.394;8.686;2023-06-05T02:11:01;58.18;36.69;66.41;;
60116;Laerm;62818;49.394;8.686;2023-06-05T02:12:02;56.55;36.20;66.40;;
60116;Laerm;62818;49.394;8.686;2023-06-05T02:13:03;46.92;37.12;61.64;;
60116;Laerm;62818;49.394;8.686;2023-06-05T02:14:05;65.71;37.52;73.17;;
60116;Laerm;62818;49.394;8.686;2023-06-05T02:15:13;64.06;38.81;72.12;;
60116;Laerm;62818;49.394;8.686;2023-06-05T02:16:15;61.29;39.08;70.43;;
60116;Laerm;62818;49.394;8.686;2023-06-05T02:17:17;60.42;37.88;68.98;;
60116;Laerm;62818;49.394;8.686;2023-06-05T02:18:17;57.10;39.70;66.17;;
60116;Laerm;62818;49.394;8.686;2023-06-05T02:19:18;58.11;39.46;66.03;;
60116;Laerm;62818;49.394;8.686;2023-06-05T02:20:23;57.78;38.21;66.69;;
60116;Laerm;62818;49.394;8.686;2023-06-05T02:21:23;58.49;38.52;66.34;;
60116;Laerm;62818;49.394;8.686;2023-06-05T02:22:24;58.48;38.05;66.31;;
60116;Laerm;62818;49.394;8.686;2023-06-05T02:23:24;58.42;37.70;66.55;;
60116;Laerm;62818;49.394;8.686;2023-06-05T02:24:25;59.98;38.67;68.73;;
60116;Laerm;62818;49.394;8.686;2023-06-05T02:25:26;57.70;37.88;66.33;;
60116;Laerm;62818;49.394;8.686;2023-06-05T02:26:27;58.45;38.21;66.49;;
60116;Laerm;62818;49.394;8.686;2023-06-05T02:27:28;62.02;35.31;71.12;;
60116;Laerm;62818;49.394;8.686;2023-06-05T02:28:28;65.29;38.81;72.42;;
60116;Laerm;62818;49.394;8.686;2023-06-05T02:29:29;59.61;38.81;68.49;;
60116;Laerm;62818;49.394;8.686;2023-06-05T02:30:30;59.07;38.67;68.37;;
60116;Laerm;62818;49.394;8.686;2023-06-05T02:31:30;55.95;37.52;66.67;;
60116;Laerm;62818;49.394;8.686;2023-06-05T02:32:31;56.19;36.45;67.36;;
60116;Laerm;62818;49.394;8.686;2023-06-05T02:33:31;57.69;38.05;66.26;;
60116;Laerm;62818;49.394;8.686;2023-06-05T02:34:32;60.33;37.88;68.72;;
60116;Laerm;62818;49.394;8.686;2023-06-05T02:35:33;65.14;39.70;72.60;;
60116;Laerm;62818;49.394;8.686;2023-06-05T02:36:33;62.45;40.23;71.62;;
60116;Laerm;62818;49.394;8.686;2023-06-05T02:37:35;66.12;38.21;72.86;;
60116;Laerm;62818;49.394;8.686;2023-06-05T02:38:44;66.00;38.37;73.33;;
60116;Laerm;62818;49.394;8.686;2023-06-05T02:39:44;65.92;38.21;73.50;;
60116;Laerm;62818;49.394;8.686;2023-06-05T02:40:45;60.01;39.21;69.22;;
60116;Laerm;62818;49.394;8.686;2023-06-05T02:41:46;58.81;39.34;66.52;;
60116;Laerm;62818;49.394;8.686;2023-06-05T02:42:46;61.17;37.88;69.35;;
60116;Laerm;62818;49.394;8.686;2023-06-05T02:43:47;57.17;38.95;66.14;;
60116;Laerm;62818;49.394;8.686;2023-06-05T02:44:47;57.66;38.37;66.10;;
60116;Laerm;62818;49.394;8.686;2023-06-05T02:45:48;62.15;40.89;71.09;;
60116;Laerm;62818;49.394;8.686;2023-06-05T02:46:49;66.06;39.58;73.42;;
60116;Laerm;62818;49.394;8.686;2023-06-05T02:47:49;59.77;39.46;68.90;;
60116;Laerm;62818;49.394;8.686;2023-06-05T02:48:51;65.15;38.37;73.08;;
60116;Laerm;62818;49.394;8.686;2023-06-05T02:49:52;61.99;39.08;69.53;;
60116;Laerm;62818;49.394;8.686;2023-06-05T02:50:52;62.06;40.03;70.41;;
60116;Laerm;62818;49.394;8.686;2023-06-05T02:51:53;61.13;43.14;73.68;;
60116;Laerm;62818;49.394;8.686;2023-06-05T02:52:53;64.52;40.43;72.25;;
60116;Laerm;62818;49.394;8.686;2023-06-05T02:53:54;65.87;40.33;73.12;;
60116;Laerm;62818;49.394;8.686;2023-06-05T02:54:54;59.28;39.34;69.07;;
60116;Laerm;62818;49.394;8.686;2023-06-05T02:55:55;56.32;39.21;66.73;;
60116;Laerm;62818;49.394;8.686;2023-06-05T02:56:56;56.93;40.23;66.58;;
60116;Laerm;62818;49.394;8.686;2023-06-05T02:58:00;56.91;41.53;66.14;;
60116;Laerm;62818;49.394;8.686;2023-06-05T02:59:01;56.96;40.71;67.42;;
60116;Laerm;62818;49.394;8.686;2023-06-05T03:00:03;56.87;40.13;66.29;;
60116;Laerm;62818;49.394;8.686;2023-06-05T03:01:08;58.04;41.61;66.08;;
60116;Laerm;62818;49.394;8.686;2023-06-05T03:02:09;64.39;41.22;72.91;;
60116;Laerm;62818;49.394;8.686;2023-06-05T03:03:10;62.05;39.21;70.66;;
60116;Laerm;62818;49.394;8.686;2023-06-05T03:04:13;60.85;40.89;69.07;;
60116;Laerm;62818;49.394;8.686;2023-06-05T03:05:14;64.47;40.71;72.77;;
60116;Laerm;62818;49.394;8.686;2023-06-05T03:06:15;61.93;42.35;70.91;;
60116;Laerm;62818;49.394;8.686;2023-06-05T03:07:17;65.63;43.19;72.90;;
60116;Laerm;62818;49.394;8.686;2023-06-05T03:08:17;60.98;41.96;69.38;;
60116;Laerm;62818;49.394;8.686;2023-06-05T03:09:18;65.24;42.30;72.72;;
60116;Laerm;62818;49.394;8.686;2023-06-05T03:10:20;66.14;39.34;73.67;;
60116;Laerm;62818;49.394;8.686;2023-06-05T03:11:21;66.40;41.46;73.07;;
60116;Laerm;62818;49.394;8.686;2023-06-05T03:12:24;61.76;40.23;69.97;;
60116;Laerm;62818;49.394;8.686;2023-06-05T03:13:24;60.32;40.23;69.31;;
60116;Laerm;62818;49.394;8.686;2023-06-05T03:14:25;65.04;41.68;72.66;;
60116;Laerm;62818;49.394;8.686;2023-06-05T03:15:28;66.38;42.82;73.19;;
60116;Laerm;62818;49.394;8.686;2023-06-05T03:16:29;66.13;43.68;73.41;;
60116;Laerm;62818;49.394;8.686;2023-06-05T03:17:33;63.18;42.71;72.56;;
60116;Laerm;62818;49.394;8.686;2023-06-05T03:18:34;58.31;41.53;67.52;;
60116;Laerm;62818;49.394;8.686;2023-06-05T03:19:34;58.92;41.53;67.25;;
60116;Laerm;62818;49.394;8.686;2023-06-05T03:20:35;60.36;41.46;68.51;;
60116;Laerm;62818;49.394;8.686;2023-06-05T03:21:37;60.08;41.06;68.80;;
60116;Laerm;62818;49.394;8.686;2023-06-05T03:22:39;66.08;40.71;74.17;;
60116;Laerm;62818;49.394;8.686;2023-06-05T03:23:40;62.39;42.09;70.56;;
60116;Laerm;62818;49.394;8.686;2023-06-05T03:24:40;65.64;41.89;73.01;;
60116;Laerm;62818;49.394;8.686;2023-06-05T03:25:41;61.72;41.96;70.13;;
60116;Laerm;62818;49.394;8.686;2023-06-05T03:26:43;65.49;41.30;73.35;;
60116;Laerm;62818;49.394;8.686;2023-06-05T03:27:44;62.03;40.62;71.01;;
60116;Laerm;62818;49.394;8.686;2023-06-05T03:28:44;65.75;41.46;72.92;;
60116;Laerm;62818;49.394;8.686;2023-06-05T03:29:44;66.15;41.75;73.61;;
60116;Laerm;62818;49.394;8.686;2023-06-05T03:30:46;62.34;39.81;70.47;;
60116;Laerm;62818;49.394;8.686;2023-06-05T03:31:46;65.44;41.75;73.28;;
60116;Laerm;62818;49.394;8.686;2023-06-05T03:32:47;61.57;40.23;70.28;;
60116;Laerm;62818;49.394;8.686;2023-06-05T03:33:48;61.78;41.14;71.12;;
60116;Laerm;62818;49.394;8.686;2023-06-05T03:34:48;64.82;40.62;72.53;;
60116;Laerm;62818;49.394;8.686;2023-06-05T03:35:49;61.83;41.53;69.79;;
60116;Laerm;62818;49.394;8.686;2023-06-05T03:36:50;65.73;41.06;73.04;;
60116;Laerm;62818;49.394;8.686;2023-06-05T03:37:51;61.72;42.93;69.93;;
60116;Laerm;62818;49.394;8.686;2023-06-05T03:38:52;61.51;44.39;69.38;;
60116;Laerm;62818;49.394;8.686;2023-06-05T03:39:52;65.79;41.75;73.25;;
60116;Laerm;62818;49.394;8.686;2023-06-05T03:40:53;65.53;41.82;73.04;;
60116;Laerm;62818;49.394;8.686;2023-06-05T03:41:53;65.58;41.14;73.32;;
60116;Laerm;62818;49.394;8.686;2023-06-05T03:42:54;65.56;41.82;72.84;;
60116;Laerm;62818;49.394;8.686;2023-06-05T03:43:54;61.28;41.22;70.21;;
60116;Laerm;62818;49.394;8.686;2023-06-05T03:44:55;61.10;41.61;69.48;;
60116;Laerm;62818;49.394;8.686;2023-06-05T03:45:56;60.64;35.36;69.84;;
60116;Laerm;62818;49.394;8.686;2023-06-05T03:46:56;65.48;41.68;72.65;;
60116;Laerm;62818;49.394;8.686;2023-06-05T03:47:57;66.33;41.89;73.17;;
60116;Laerm;62818;49.394;8.686;2023-06-05T03:49:00;65.32;42.09;72.59;;
60116;Laerm;62818;49.394;8.686;2023-06-05T03:50:06;65.40;42.69;72.26;;
60116;Laerm;62818;49.394;8.686;2023-06-05T03:51:06;62.87;42.98;70.84;;
60116;Laerm;62818;49.394;8.686;2023-06-05T03:52:07;65.08;42.59;72.92;;
60116;Laerm;62818;49.394;8.686;2023-06-05T03:53:11;61.03;43.58;69.53;;
60116;Laerm;62818;49.394;8.686;2023-06-05T03:54:14;59.00;43.19;66.22;;
60116;Laerm;62818;49.394;8.686;2023-06-05T03:55:16;64.71;43.44;72.46;;
60116;Laerm;62818;49.394;8.686;2023-06-05T03:56:17;61.45;43.29;70.39;;
60116;Laerm;62818;49.394;8.686;2023-06-05T03:57:20;61.86;45.42;69.24;;
60116;Laerm;62818;49.394;8.686;2023-06-05T03:58:20;65.42;43.68;72.29;;
60116;Laerm;62818;49.394;8.686;2023-06-05T03:59:22;62.15;42.65;70.24;;
60116;Laerm;62818;49.394;8.686;2023-06-05T04:00:24;62.68;43.04;71.29;;
60116;Laerm;62818;49.394;8.686;2023-06-05T04:01:24;61.65;44.35;68.72;;
60116;Laerm;62818;49.394;8.686;2023-06-05T04:02:25;62.51;50.58;69.06;;
60116;Laerm;62818;49.394;8.686;2023-06-05T04:03:26;61.51;43.63;69.10;;
60116;Laerm;62818;49.394;8.686;2023-06-05T04:04:30;65.05;44.65;73.35;;
60116;Laerm;62818;49.394;8.686;2023-06-05T04:05:31;65.40;42.71;72.53;;
60116;Laerm;62818;49.394;8.686;2023-06-05T04:06:31;65.32;40.43;72.41;;
60116;Laerm;62818;49.394;8.686;2023-06-05T04:07:37;62.36;42.41;71.30;;
60116;Laerm;62818;49.394;8.686;2023-06-05T04:08:38;64.86;43.63;72.22;;
60116;Laerm;62818;49.394;8.686;2023-06-05T04:09:38;65.59;41.89;73.09;;
60116;Laerm;62818;49.394;8.686;2023-06-05T04:10:40;65.14;42.76;72.60;;
60116;Laerm;62818;49.394;8.686;2023-06-05T04:11:43;64.67;43.19;73.82;;
60116;Laerm;62818;49.394;8.686;2023-06-05T04:12:44;63.40;43.77;72.03;;
60116;Laerm;62818;49.394;8.686;2023-06-05T04:13:44;64.90;43.19;73.29;;
60116;Laerm;62818;49.394;8.686;2023-06-05T04:14:45;65.18;47.58;72.16;;
60116;Laerm;62818;49.394;8.686;2023-06-05T04:15:46;62.00;48.64;72.79;;
60116;Laerm;62818;49.394;8.686;2023-06-05T04:16:49;59.07;46.15;69.99;;
60116;Laerm;62818;49.394;8.686;2023-06-05T04:17:49;61.91;49.20;74.68;;
60116;Laerm;62818;49.394;8.686;2023-06-05T04:18:50;65.94;49.23;73.11;;
60116;Laerm;62818;49.394;8.686;2023-06-05T04:19:50;65.44;48.83;72.93;;
60116;Laerm;62818;49.394;8.686;2023-06-05T04:20:51;62.03;46.02;70.55;;
60116;Laerm;62818;49.394;8.686;2023-06-05T04:21:51;64.57;43.49;71.99;;
60116;Laerm;62818;49.394;8.686;2023-06-05T04:22:52;65.57;42.98;73.36;;
60116;Laerm;62818;49.394;8.686;2023-06-05T04:23:52;62.57;43.44;71.29;;
60116;Laerm;62818;49.394;8.686;2023-06-05T04:24:53;65.11;44.35;72.45;;
60116;Laerm;62818;49.394;8.686;2023-06-05T04:25:54;65.75;46.05;73.09;;
60116;Laerm;62818;49.394;8.686;2023-06-05T04:26:55;65.98;46.69;73.03;;
60116;Laerm;62818;49.394;8.686;2023-06-05T04:27:55;63.16;46.78;68.82;;
60116;Laerm;62818;49.394;8.686;2023-06-05T04:28:57;64.88;44.83;72.86;;
60116;Laerm;62818;49.394;8.686;2023-06-05T04:29:57;64.85;44.11;72.22;;
60116;Laerm;62818;49.394;8.686;2023-06-05T04:30:58;65.49;49.79;71.85;;
60116;Laerm;62818;49.394;8.686;2023-06-05T04:31:58;60.84;42.35;68.44;;
60116;Laerm;62818;49.394;8.686;2023-06-05T04:32:59;63.29;43.14;71.27;;
60116;Laerm;62818;49.394;8.686;2023-06-05T04:33:59;64.89;43.24;71.79;;
60116;Laerm;62818;49.394;8.686;2023-06-05T04:35:02;64.62;43.34;71.71;;
60116;Laerm;62818;49.394;8.686;2023-06-05T04:36:03;62.97;42.59;71.10;;
60116;Laerm;62818;49.394;8.686;2023-06-05T04:37:05;64.37;42.76;71.17;;
60116;Laerm;62818;49.394;8.686;2023-06-05T04:38:06;64.11;44.73;70.69;;
60116;Laerm;62818;49.394;8.686;2023-06-05T04:39:07;58.94;42.53;66.87;;
60116;Laerm;62818;49.394;8.686;2023-06-05T04:40:17;58.68;42.59;65.75;;
60116;Laerm;62818;49.394;8.686;2023-06-05T04:41:18;58.53;44.23;63.99;;
60116;Laerm;62818;49.394;8.686;2023-06-05T04:42:18;58.79;42.65;71.66;;
60116;Laerm;62818;49.394;8.686;2023-06-05T04:43:19;60.97;42.35;68.54;;
60116;Laerm;62818;49.394;8.686;2023-06-05T04:44:20;62.53;44.97;70.05;;
60116;Laerm;62818;49.394;8.686;2023-06-05T04:45:20;63.11;41.61;70.88;;
60116;Laerm;62818;49.394;8.686;2023-06-05T04:46:21;57.76;41.61;65.97;;
60116;Laerm;62818;49.394;8.686;2023-06-05T04:47:22;63.17;45.86;70.10;;
60116;Laerm;62818;49.394;8.686;2023-06-05T04:48:23;63.95;43.86;71.64;;
60116;Laerm;62818;49.394;8.686;2023-06-05T04:49:24;63.08;42.53;70.38;;
60116;Laerm;62818;49.394;8.686;2023-06-05T04:50:27;59.28;44.11;65.43;;
60116;Laerm;62818;49.394;8.686;2023-06-05T04:51:33;62.53;42.76;70.27;;
60116;Laerm;62818;49.394;8.686;2023-06-05T04:52:35;63.05;42.35;70.68;;
60116;Laerm;62818;49.394;8.686;2023-06-05T04:53:35;60.33;44.66;66.73;;
60116;Laerm;62818;49.394;8.686;2023-06-05T04:54:36;60.63;44.11;68.57;;
60116;Laerm;62818;49.394;8.686;2023-06-05T04:55:36;57.71;41.30;66.32;;
60116;Laerm;62818;49.394;8.686;2023-06-05T04:56:37;58.87;44.03;66.00;;
60116;Laerm;62818;49.394;8.686;2023-06-05T04:57:38;62.08;42.76;69.99;;
60116;Laerm;62818;49.394;8.686;2023-06-05T04:58:39;62.55;42.22;70.06;;
60116;Laerm;62818;49.394;8.686;2023-06-05T04:59:39;63.36;44.27;70.30;;
60116;Laerm;62818;49.394;8.686;2023-06-05T05:00:40;63.27;46.50;71.07;;
60116;Laerm;62818;49.394;8.686;2023-06-05T05:01:41;62.10;42.47;70.56;;
60116;Laerm;62818;49.394;8.686;2023-06-05T05:02:42;59.80;43.14;68.79;;
60116;Laerm;62818;49.394;8.686;2023-06-05T05:03:44;62.39;44.58;69.00;;
60116;Laerm;62818;49.394;8.686;2023-06-05T05:04:46;57.53;44.27;65.37;;
60116;Laerm;62818;49.394;8.686;2023-06-05T05:05:46;61.94;43.49;69.29;;
60116;Laerm;62818;49.394;8.686;2023-06-05T05:06:47;62.98;46.66;77.27;;
60116;Laerm;62818;49.394;8.686;2023-06-05T05:07:48;62.66;42.65;70.68;;
60116;Laerm;62818;49.394;8.686;2023-06-05T05:08:48;62.30;43.81;69.33;;
60116;Laerm;62818;49.394;8.686;2023-06-05T05:09:49;63.22;48.25;70.03;;
60116;Laerm;62818;49.394;8.686;2023-06-05T05:10:50;62.40;44.97;70.69;;
60116;Laerm;62818;49.394;8.686;2023-06-05T05:11:50;62.45;43.54;69.32;;
60116;Laerm;62818;49.394;8.686;2023-06-05T05:12:51;62.01;47.12;69.19;;
60116;Laerm;62818;49.394;8.686;2023-06-05T05:13:51;62.43;43.63;69.81;;
60116;Laerm;62818;49.394;8.686;2023-06-05T05:14:52;61.89;43.09;69.15;;
60116;Laerm;62818;49.394;8.686;2023-06-05T05:15:52;62.67;43.86;69.61;;
60116;Laerm;62818;49.394;8.686;2023-06-05T05:16:53;60.44;42.76;72.10;;
60116;Laerm;62818;49.394;8.686;2023-06-05T05:17:55;55.36;41.82;62.81;;
60116;Laerm;62818;49.394;8.686;2023-06-05T05:18:56;54.13;43.81;60.99;;
60116;Laerm;62818;49.394;8.686;2023-06-05T05:20:03;61.70;45.60;68.79;;
60116;Laerm;62818;49.394;8.686;2023-06-05T05:21:07;57.13;42.82;65.15;;
60116;Laerm;62818;49.394;8.686;2023-06-05T05:22:08;69.55;46.82;85.09;;
60116;Laerm;62818;49.394;8.686;2023-06-05T05:23:13;61.78;43.44;69.26;;
60116;Laerm;62818;49.394;8.686;2023-06-05T05:24:18;57.90;42.65;65.95;;
60116;Laerm;62818;49.394;8.686;2023-06-05T05:25:19;61.07;43.09;68.02;;
60116;Laerm;62818;49.394;8.686;2023-06-05T05:26:22;61.74;42.82;68.13;;
60116;Laerm;62818;49.394;8.686;2023-06-05T05:27:23;61.51;42.35;68.97;;
60116;Laerm;62818;49.394;8.686;2023-06-05T05:28:24;50.68;41.53;63.36;;
60116;Laerm;62818;49.394;8.686;2023-06-05T05:29:28;61.53;43.68;67.98;;
60116;Laerm;62818;49.394;8.686;2023-06-05T05:30:32;59.43;43.58;66.50;;
60116;Laerm;62818;49.394;8.686;2023-06-05T05:31:34;56.68;41.94;64.94;;
60116;Laerm;62818;49.394;8.686;2023-06-05T05:32:35;60.65;43.19;67.73;;
60116;Laerm;62818;49.394;8.686;2023-06-05T05:33:39;56.38;42.59;63.67;;
60116;Laerm;62818;49.394;8.686;2023-06-05T05:34:39;53.36;41.82;62.64;;
60116;Laerm;62818;49.394;8.686;2023-06-05T05:35:41;56.00;43.99;63.48;;
60116;Laerm;62818;49.394;8.686;2023-06-05T05:36:42;56.65;44.35;63.84;;
60116;Laerm;62818;49.394;8.686;2023-06-05T05:37:49;55.01;43.09;64.43;;
60116;Laerm;62818;49.394;8.686;2023-06-05T05:38:53;58.18;43.29;65.62;;
60116;Laerm;62818;49.394;8.686;2023-06-05T05:39:54;56.14;44.23;63.36;;
60116;Laerm;62818;49.394;8.686;2023-06-05T05:40:55;60.31;46.02;71.21;;
60116;Laerm;62818;49.394;8.686;2023-06-05T05:42:11;59.36;43.58;70.05;;
60116;Laerm;62818;49.394;8.686;2023-06-05T05:43:13;60.44;45.72;67.62;;
60116;Laerm;62818;49.394;8.686;2023-06-05T05:44:20;57.71;42.98;64.02;;
60116;Laerm;62818;49.394;8.686;2023-06-05T05:45:21;60.74;43.09;68.03;;
60116;Laerm;62818;49.394;8.686;2023-06-05T05:46:22;60.18;44.43;67.12;;
60116;Laerm;62818;49.394;8.686;2023-06-05T05:47:22;60.52;48.34;67.37;;